createdAt,value
2018-08-10T00:02:20.351Z,52.50
2018-08-10T00:04:51.564Z,52.40
2018-08-10T00:07:22.730Z,52.50
2018-08-10T00:09:53.341Z,52.50
2018-08-10T00:12:24.302Z,52.60
2018-08-10T00:14:55.492Z,52.70
2018-08-10T00:17:26.526Z,52.70
2018-08-10T00:19:57.599Z,52.60
2018-08-10T00:22:28.585Z,52.70
2018-08-10T00:24:59.538Z,53.00
2018-08-10T00:27:30.508Z,52.60
2018-08-10T00:30:01.506Z,54.20
2018-08-10T00:32:32.442Z,52.60
2018-08-10T00:35:03.166Z,52.60
2018-08-10T00:37:33.857Z,52.60
2018-08-10T00:40:05.797Z,52.60
2018-08-10T00:42:36.816Z,52.50
2018-08-10T00:45:09.799Z,52.50
2018-08-10T00:47:41.116Z,52.50
2018-08-10T00:50:12.944Z,52.60
2018-08-10T00:52:44.550Z,52.60
2018-08-10T00:55:16.953Z,52.30
2018-08-10T00:57:48.770Z,52.30
2018-08-10T01:00:23.823Z,52.40
2018-08-10T01:02:54.722Z,52.40
2018-08-10T01:05:25.836Z,52.40
2018-08-10T01:07:56.421Z,51.20
2018-08-10T01:10:28.013Z,53.00
2018-08-10T01:12:58.711Z,52.40
2018-08-10T01:15:30.597Z,53.00
2018-08-10T01:18:01.705Z,52.40
2018-08-10T01:20:32.538Z,52.40
2018-08-10T01:23:07.163Z,52.50
2018-08-10T01:25:37.874Z,51.90
2018-08-10T01:28:08.565Z,52.30
2018-08-10T01:30:39.273Z,52.30
2018-08-10T01:33:09.881Z,52.40
2018-08-10T01:35:43.740Z,52.40
2018-08-10T01:38:14.680Z,52.40
2018-08-10T01:40:46.101Z,52.40
2018-08-10T01:43:17.379Z,52.30
2018-08-10T01:45:47.962Z,52.30
2018-08-10T01:48:18.716Z,52.90
2018-08-10T01:50:49.502Z,52.10
2018-08-10T01:53:20.657Z,51.90
2018-08-10T01:55:51.192Z,52.00
2018-08-10T01:58:21.752Z,51.90
2018-08-10T02:00:52.375Z,51.90
2018-08-10T02:03:23.311Z,52.00
2018-08-10T02:05:54.868Z,52.10
2018-08-10T02:08:25.904Z,51.90
2018-08-10T02:10:56.569Z,51.80
2018-08-10T02:13:27.177Z,51.80
2018-08-10T02:15:58.299Z,51.80
2018-08-10T02:18:29.037Z,51.80
2018-08-10T02:21:00.345Z,51.70
2018-08-10T02:23:31.108Z,51.80
2018-08-10T02:26:01.798Z,51.90
2018-08-10T02:28:32.845Z,51.90
2018-08-10T02:31:04.001Z,52.70
2018-08-10T02:33:35.457Z,52.30
2018-08-10T02:36:06.445Z,52.20
2018-08-10T02:38:37.405Z,52.30
2018-08-10T02:41:09.234Z,52.40
2018-08-10T02:43:39.908Z,52.50
2018-08-10T02:46:10.714Z,52.60
2018-08-10T02:48:41.511Z,52.60
2018-08-10T02:51:11.991Z,52.80
2018-08-10T02:53:42.982Z,52.80
2018-08-10T02:56:13.531Z,52.90
2018-08-10T02:58:44.222Z,53.00
2018-08-10T03:01:15.141Z,53.00
2018-08-10T03:03:45.774Z,52.90
2018-08-10T03:06:16.588Z,52.90
2018-08-10T03:08:47.803Z,53.00
2018-08-10T03:11:18.373Z,53.10
2018-08-10T03:13:49.277Z,53.20
2018-08-10T03:16:20.013Z,55.00
2018-08-10T03:18:50.813Z,53.40
2018-08-10T03:21:21.912Z,53.60
2018-08-10T03:23:52.481Z,54.10
2018-08-10T03:26:23.501Z,53.40
2018-08-10T03:28:54.403Z,53.90
2018-08-10T03:31:25.003Z,53.90
2018-08-10T03:33:55.555Z,54.00
2018-08-10T03:36:26.431Z,54.00
2018-08-10T03:38:57.105Z,54.10
2018-08-10T03:41:27.814Z,54.30
2018-08-10T03:43:58.744Z,54.30
2018-08-10T03:46:29.302Z,54.40
2018-08-10T03:48:59.925Z,54.50
2018-08-10T03:51:31.112Z,54.60
2018-08-10T03:54:01.934Z,54.60
2018-08-10T03:56:32.607Z,54.80
2018-08-10T03:59:03.439Z,54.80
2018-08-10T04:01:33.974Z,54.80
2018-08-10T04:04:04.975Z,54.90
2018-08-10T04:06:35.640Z,54.80
2018-08-10T04:09:10.016Z,55.00
2018-08-10T04:11:41.424Z,55.10
2018-08-10T04:14:12.592Z,55.10
2018-08-10T04:16:43.192Z,55.00
2018-08-10T04:19:14.076Z,55.30
2018-08-10T04:21:45.406Z,55.20
2018-08-10T04:24:16.013Z,55.20
2018-08-10T04:26:46.648Z,55.20
2018-08-10T04:29:17.178Z,55.20
2018-08-10T04:31:47.865Z,55.30
2018-08-10T04:34:18.409Z,56.00
2018-08-10T04:36:49.208Z,55.40
2018-08-10T04:39:19.857Z,55.40
2018-08-10T04:41:50.419Z,55.70
2018-08-10T04:44:20.970Z,55.60
2018-08-10T04:46:51.865Z,55.70
2018-08-10T04:49:22.589Z,55.80
2018-08-10T04:51:53.517Z,55.70
2018-08-10T04:54:24.292Z,55.90
2018-08-10T04:56:55.025Z,56.00
2018-08-10T04:59:26.003Z,56.70
2018-08-10T05:01:56.982Z,56.00
2018-08-10T05:04:27.967Z,56.10
2018-08-10T05:06:58.535Z,56.20
2018-08-10T05:09:29.108Z,56.40
2018-08-10T05:12:00.115Z,56.40
2018-08-10T05:14:31.341Z,56.30
2018-08-10T05:17:01.942Z,56.50
2018-08-10T05:19:33.072Z,56.50
2018-08-10T05:22:03.774Z,56.50
2018-08-10T05:24:35.166Z,56.60
2018-08-10T05:27:05.746Z,56.50
2018-08-10T05:29:36.765Z,56.60
2018-08-10T05:32:08.198Z,56.60
2018-08-10T05:34:38.748Z,56.60
2018-08-10T05:37:09.565Z,56.10
2018-08-10T05:39:40.651Z,56.80
2018-08-10T05:42:11.301Z,56.70
2018-08-10T05:44:41.850Z,56.80
2018-08-10T05:47:12.496Z,56.90
2018-08-10T05:49:44.633Z,56.90
2018-08-10T05:52:15.161Z,56.80
2018-08-10T05:54:45.977Z,56.90
2018-08-10T05:57:16.514Z,56.90
2018-08-10T05:59:48.476Z,56.90
2018-08-10T06:02:19.181Z,56.80
2018-08-10T06:04:49.865Z,56.80
2018-08-10T06:07:20.529Z,56.80
2018-08-10T06:09:51.431Z,56.70
2018-08-10T06:12:22.005Z,56.70
2018-08-10T06:14:52.527Z,56.70
2018-08-10T06:17:23.106Z,56.80
2018-08-10T06:19:53.708Z,56.80
2018-08-10T06:22:24.594Z,56.80
2018-08-10T06:24:55.255Z,57.00
2018-08-10T06:27:26.008Z,56.80
2018-08-10T06:29:56.701Z,56.80
2018-08-10T06:32:27.997Z,56.70
2018-08-10T06:34:58.629Z,56.40
2018-08-10T06:37:29.285Z,56.40
2018-08-10T06:39:59.841Z,56.80
2018-08-10T06:42:30.367Z,56.20
2018-08-10T06:45:01.037Z,56.30
2018-08-10T06:47:31.594Z,56.50
2018-08-10T06:50:02.865Z,56.50
2018-08-10T06:52:33.653Z,56.50
2018-08-10T06:55:04.535Z,56.50
2018-08-10T06:57:35.914Z,56.90
2018-08-10T07:00:07.949Z,56.30
2018-08-10T07:02:39.066Z,56.20
2018-08-10T07:05:10.024Z,56.20
2018-08-10T07:07:40.651Z,56.20
2018-08-10T07:10:11.411Z,56.10
2018-08-10T07:12:42.089Z,56.00
2018-08-10T07:15:12.594Z,55.90
2018-08-10T07:17:43.390Z,55.90
2018-08-10T07:20:13.921Z,55.80
2018-08-10T07:22:44.672Z,55.90
2018-08-10T07:25:15.269Z,56.00
2018-08-10T07:27:46.209Z,55.70
2018-08-10T07:30:16.861Z,55.70
2018-08-10T07:32:47.948Z,55.60
2018-08-10T07:35:19.036Z,55.80
2018-08-10T07:37:49.719Z,55.70
2018-08-10T07:40:21.440Z,55.80
2018-08-10T07:42:52.119Z,55.60
2018-08-10T07:45:22.787Z,55.50
2018-08-10T07:47:53.402Z,55.50
2018-08-10T07:50:23.985Z,55.30
2018-08-10T07:52:54.494Z,55.10
2018-08-10T07:55:25.045Z,55.00
2018-08-10T07:57:55.734Z,55.30
2018-08-10T08:00:28.047Z,54.30
2018-08-10T08:02:58.766Z,54.00
2018-08-10T08:05:30.058Z,54.00
2018-08-10T08:08:00.635Z,54.00
2018-08-10T08:10:31.704Z,53.70
2018-08-10T08:13:02.988Z,53.10
2018-08-10T08:15:34.043Z,52.90
2018-08-10T08:18:05.426Z,52.90
2018-08-10T08:20:39.805Z,53.20
2018-08-10T08:23:10.800Z,53.10
2018-08-10T08:25:41.988Z,53.30
2018-08-10T08:28:13.101Z,53.10
2018-08-10T08:30:43.804Z,52.90
2018-08-10T08:33:14.554Z,52.30
2018-08-10T08:35:45.093Z,51.80
2018-08-10T08:38:33.244Z,51.70
2018-08-10T08:41:04.237Z,51.50
2018-08-10T08:46:03.598Z,51.10
2018-08-10T08:48:38.854Z,50.50
2018-08-10T08:51:12.686Z,50.70
2018-08-10T08:53:43.316Z,50.80
2018-08-10T08:56:20.060Z,50.90
2018-08-10T08:58:51.327Z,50.80
2018-08-10T09:01:21.920Z,50.20
2018-08-10T09:05:07.471Z,50.20
2018-08-10T09:07:38.928Z,49.90
2018-08-10T09:10:17.003Z,49.90
2018-08-10T09:12:48.111Z,50.50
2018-08-10T09:15:20.423Z,49.20
2018-08-10T09:17:51.461Z,49.60
2018-08-10T09:20:22.771Z,49.30
2018-08-10T09:22:53.618Z,49.10
2018-08-10T09:25:24.371Z,49.60
2018-08-10T09:27:55.398Z,48.80
2018-08-10T09:30:26.274Z,48.70
2018-08-10T09:32:57.310Z,48.60
2018-08-10T09:35:28.052Z,48.60
2018-08-10T09:37:59.159Z,48.20
2018-08-10T09:40:30.421Z,48.00
2018-08-10T09:43:01.382Z,47.70
2018-08-10T09:45:32.634Z,47.80
2018-08-10T09:48:03.559Z,48.00
2018-08-10T09:50:34.581Z,47.90
2018-08-10T09:53:06.009Z,47.90
2018-08-10T09:55:37.545Z,47.20
2018-08-10T09:58:13.365Z,47.30
2018-08-10T10:00:49.230Z,47.30
2018-08-10T10:03:22.530Z,46.90
2018-08-10T10:05:54.960Z,46.80
2018-08-10T10:08:26.475Z,46.80
2018-08-10T10:10:57.624Z,46.30
2018-08-10T10:13:28.314Z,46.70
2018-08-10T10:15:59.078Z,46.80
2018-08-10T10:18:29.750Z,46.30
2018-08-10T10:21:00.880Z,46.20
2018-08-10T10:23:31.732Z,45.40
2018-08-10T10:26:02.498Z,44.80
2018-08-10T10:28:33.686Z,45.00
2018-08-10T10:31:05.262Z,44.50
2018-08-10T10:33:36.438Z,44.00
2018-08-10T10:36:08.818Z,43.30
2018-08-10T10:38:40.047Z,43.50
2018-08-10T10:41:11.423Z,43.50
2018-08-10T10:43:42.498Z,42.20
2018-08-10T10:46:13.810Z,41.60
2018-08-10T10:48:45.061Z,40.80
2018-08-10T10:51:16.180Z,39.30
2018-08-10T10:53:47.296Z,39.90
2018-08-10T10:56:18.736Z,39.40
2018-08-10T10:58:49.932Z,37.10
2018-08-10T11:01:21.001Z,36.90
2018-08-10T11:03:52.188Z,35.90
2018-08-10T11:06:23.386Z,35.30
2018-08-10T11:08:54.729Z,35.30
2018-08-10T11:11:26.490Z,35.10
2018-08-10T11:13:57.679Z,34.60
2018-08-10T11:16:28.890Z,34.60
2018-08-10T11:19:00.036Z,35.20
2018-08-10T11:21:31.739Z,33.50
2018-08-10T11:24:03.077Z,33.90
2018-08-10T11:26:34.485Z,32.40
2018-08-10T11:29:06.082Z,31.80
2018-08-10T11:31:37.853Z,31.60
2018-08-10T11:34:09.063Z,31.50
2018-08-10T11:36:40.531Z,31.20
2018-08-10T11:39:13.056Z,30.80
2018-08-10T11:41:44.951Z,31.00
2018-08-10T11:44:16.256Z,30.30
2018-08-10T11:46:47.421Z,30.60
2018-08-10T11:49:18.578Z,29.90
2018-08-10T11:51:50.181Z,29.90
2018-08-10T11:54:21.557Z,29.20
2018-08-10T11:56:52.785Z,29.30
2018-08-10T11:59:24.257Z,28.30
2018-08-10T12:01:55.624Z,27.60
2018-08-10T12:04:26.985Z,27.20
2018-08-10T12:06:58.684Z,27.50
2018-08-10T12:09:29.904Z,27.50
2018-08-10T12:12:01.809Z,27.50
2018-08-10T12:14:33.333Z,27.80
2018-08-10T12:17:46.440Z,27.60
2018-08-10T12:20:17.750Z,26.00
2018-08-10T12:22:48.985Z,26.10
2018-08-10T12:25:20.275Z,25.70
2018-08-10T12:27:51.501Z,25.30
2018-08-10T12:30:23.140Z,25.50
2018-08-10T12:32:54.743Z,25.60
2018-08-10T12:35:26.131Z,25.30
2018-08-10T12:37:57.396Z,25.60
2018-08-10T12:40:29.308Z,25.70
2018-08-10T12:43:00.683Z,25.50
2018-08-10T12:45:31.957Z,25.50
2018-08-10T12:48:04.084Z,25.50
2018-08-10T12:50:36.177Z,25.30
2018-08-10T12:53:07.969Z,25.30
2018-08-10T12:55:39.221Z,25.40
2018-08-10T12:58:10.716Z,25.30
2018-08-10T13:00:42.075Z,25.70
2018-08-10T13:03:13.360Z,26.20
2018-08-10T13:05:45.353Z,26.40
2018-08-10T13:08:16.568Z,26.50
2018-08-10T13:10:48.611Z,25.80
2018-08-10T13:13:20.126Z,25.50
2018-08-10T13:15:51.759Z,25.60
2018-08-10T13:18:23.651Z,25.30
2018-08-10T13:20:55.673Z,25.70
2018-08-10T13:23:27.764Z,25.80
2018-08-10T13:25:59.310Z,25.60
2018-08-10T13:28:31.557Z,25.50
2018-08-10T13:31:03.129Z,25.40
2018-08-10T13:33:34.747Z,25.50
2018-08-10T13:36:06.855Z,25.30
2018-08-10T13:38:38.755Z,25.40
2018-08-10T13:41:10.228Z,25.50
2018-08-10T13:43:42.461Z,25.60
2018-08-10T13:46:14.316Z,25.80
2018-08-10T13:48:46.110Z,25.90
2018-08-10T13:51:17.768Z,26.00
2018-08-10T13:53:48.941Z,25.80
2018-08-10T13:56:21.170Z,25.70
2018-08-10T13:58:53.419Z,25.60
2018-08-10T14:01:25.050Z,25.60
2018-08-10T14:03:57.130Z,25.40
2018-08-10T14:06:29.547Z,25.30
2018-08-10T14:09:01.869Z,25.40
2018-08-10T14:11:33.191Z,25.60
2018-08-10T14:14:04.883Z,25.50
2018-08-10T14:16:36.815Z,25.60
2018-08-10T14:19:08.168Z,25.60
2018-08-10T14:21:39.532Z,25.60
2018-08-10T14:24:11.013Z,25.70
2018-08-10T14:26:42.707Z,26.50
2018-08-10T14:29:13.777Z,26.00
2018-08-10T14:31:44.580Z,25.70
2018-08-10T14:34:15.277Z,25.80
2018-08-10T14:36:46.441Z,25.90
2018-08-10T14:39:17.227Z,26.00
2018-08-10T14:41:48.806Z,26.60
2018-08-10T14:44:19.602Z,26.20
2018-08-10T14:46:50.315Z,26.20
2018-08-10T14:49:21.242Z,26.10
2018-08-10T14:51:52.106Z,26.00
2018-08-10T14:54:23.493Z,26.10
2018-08-10T14:56:55.182Z,26.40
2018-08-10T14:59:26.370Z,26.40
2018-08-10T15:01:58.099Z,27.00
2018-08-10T15:04:29.480Z,26.00
2018-08-10T15:07:00.710Z,26.40
2018-08-10T15:09:31.855Z,26.60
2018-08-10T15:12:03.837Z,26.10
2018-08-10T15:14:35.223Z,26.00
2018-08-10T15:17:06.527Z,26.00
2018-08-10T15:19:37.453Z,25.80
2018-08-10T15:22:08.687Z,25.90
2018-08-10T15:24:39.924Z,26.00
2018-08-10T15:27:11.192Z,25.80
2018-08-10T15:29:42.253Z,25.70
2018-08-10T15:32:13.512Z,25.90
2018-08-10T15:34:44.265Z,26.00
2018-08-10T15:37:14.913Z,25.90
2018-08-10T15:39:45.775Z,25.90
2018-08-10T15:42:16.941Z,26.00
2018-08-10T15:44:48.074Z,26.00
2018-08-10T15:47:18.901Z,25.90
2018-08-10T15:49:49.613Z,25.90
2018-08-10T15:52:20.480Z,25.90
2018-08-10T15:54:51.120Z,26.10
2018-08-10T15:57:22.205Z,25.80
2018-08-10T15:59:53.367Z,25.80
2018-08-10T16:02:24.038Z,25.70
2018-08-10T16:04:55.148Z,26.30
2018-08-10T16:07:25.851Z,25.70
2018-08-10T16:09:56.960Z,25.60
2018-08-10T16:12:27.893Z,25.70
2018-08-10T16:14:59.296Z,25.80
2018-08-10T16:17:30.077Z,25.90
2018-08-10T16:20:01.187Z,25.80
2018-08-10T16:22:31.969Z,25.70
2018-08-10T16:25:03.245Z,25.80
2018-08-10T16:27:34.046Z,25.90
2018-08-10T16:30:07.357Z,25.90
2018-08-10T16:32:38.797Z,26.00
2018-08-10T16:35:11.767Z,26.00
2018-08-10T16:37:43.936Z,26.10
2018-08-10T16:40:16.905Z,25.90
2018-08-10T16:42:48.165Z,26.30
2018-08-10T16:45:19.634Z,26.30
2018-08-10T16:47:51.408Z,26.30
2018-08-10T16:50:22.291Z,26.50
2018-08-10T16:52:53.013Z,26.40
2018-08-10T16:55:27.212Z,26.30
2018-08-10T16:57:58.253Z,26.30
2018-08-10T17:00:30.345Z,26.30
2018-08-10T17:03:01.002Z,26.20
2018-08-10T17:05:32.151Z,26.20
2018-08-10T17:08:02.956Z,26.30
2018-08-10T17:10:33.840Z,26.30
2018-08-10T17:13:04.983Z,26.40
2018-08-10T17:15:36.082Z,26.50
2018-08-10T17:18:07.524Z,26.50
2018-08-10T17:20:38.658Z,26.50
2018-08-10T17:23:09.594Z,26.60
2018-08-10T17:25:40.855Z,26.80
2018-08-10T17:28:11.509Z,26.80
2018-08-10T17:30:42.814Z,26.60
2018-08-10T17:33:14.104Z,26.70
2018-08-10T17:35:45.448Z,26.60
2018-08-10T17:38:16.239Z,26.80
2018-08-10T17:40:47.234Z,26.80
2018-08-10T17:43:18.447Z,26.80
2018-08-10T17:45:49.323Z,26.80
2018-08-10T17:48:20.360Z,26.90
2018-08-10T17:50:51.209Z,27.10
2018-08-10T17:53:21.822Z,27.30
2018-08-10T17:55:53.710Z,27.20
2018-08-10T17:58:25.069Z,27.20
2018-08-10T18:00:56.085Z,27.30
2018-08-10T18:03:26.863Z,27.40
2018-08-10T18:05:57.898Z,27.40
2018-08-10T18:08:28.992Z,27.30
2018-08-10T18:11:00.081Z,27.40
2018-08-10T18:13:30.886Z,27.40
2018-08-10T18:16:01.622Z,27.30
2018-08-10T18:18:32.490Z,27.20
2018-08-10T18:21:03.430Z,27.20
2018-08-10T18:23:34.386Z,27.30
2018-08-10T18:26:05.546Z,27.40
2018-08-10T18:28:36.366Z,27.40
2018-08-10T18:31:07.838Z,27.40
2018-08-10T18:33:38.444Z,27.50
2018-08-10T18:36:09.310Z,27.60
2018-08-10T18:38:40.712Z,27.60
2018-08-10T18:41:11.369Z,27.80
2018-08-10T18:43:42.155Z,27.80
2018-08-10T18:46:13.284Z,28.00
2018-08-10T18:48:44.547Z,28.00
2018-08-10T18:51:15.300Z,28.10
2018-08-10T18:53:45.972Z,28.10
2018-08-10T18:56:16.670Z,28.20
2018-08-10T18:58:47.425Z,28.30
2018-08-10T19:01:18.439Z,28.20
2018-08-10T19:03:49.681Z,28.30
2018-08-10T19:06:20.661Z,28.30
2018-08-10T19:08:52.183Z,28.50
2018-08-10T19:11:23.489Z,29.10
2018-08-10T19:13:54.196Z,28.60
2018-08-10T19:16:25.418Z,28.60
2018-08-10T19:18:56.993Z,28.70
2018-08-10T19:21:27.952Z,28.80
2018-08-10T19:23:58.699Z,28.90
2018-08-10T19:26:29.614Z,29.00
2018-08-10T19:29:00.325Z,29.00
2018-08-10T19:31:31.565Z,29.00
2018-08-10T19:34:02.364Z,29.00
2018-08-10T19:36:33.165Z,29.10
2018-08-10T19:39:04.451Z,29.20
2018-08-10T19:41:35.240Z,29.20
2018-08-10T19:44:06.109Z,29.30
2018-08-10T19:46:36.968Z,29.30
2018-08-10T19:49:07.872Z,29.30
2018-08-10T19:51:38.593Z,29.30
2018-08-10T19:54:09.602Z,29.60
2018-08-10T19:56:40.825Z,29.30
2018-08-10T19:59:11.620Z,29.40
2018-08-10T20:01:42.651Z,29.40
2018-08-10T20:04:13.982Z,29.40
2018-08-10T20:06:45.599Z,29.40
2018-08-10T20:09:16.701Z,29.50
2018-08-10T20:11:47.256Z,29.60
2018-08-10T20:14:18.117Z,29.50
2018-08-10T20:16:49.029Z,29.60
2018-08-10T20:19:20.039Z,29.60
2018-08-10T20:21:51.552Z,29.80
2018-08-10T20:24:22.326Z,29.60
2018-08-10T20:26:53.007Z,29.70
2018-08-10T20:29:23.754Z,29.70
2018-08-10T20:31:54.966Z,29.80
2018-08-10T20:34:26.074Z,29.80
2018-08-10T20:36:56.659Z,29.80
2018-08-10T20:39:27.590Z,29.70
2018-08-10T20:41:58.657Z,29.80
2018-08-10T20:44:29.487Z,29.70
2018-08-10T20:47:00.796Z,30.30
2018-08-10T20:49:31.826Z,29.80
2018-08-10T20:52:02.549Z,30.30
2018-08-10T20:54:33.126Z,29.90
2018-08-10T20:57:04.333Z,30.00
2018-08-10T20:59:35.632Z,30.00
2018-08-10T21:02:06.602Z,30.00
2018-08-10T21:04:37.976Z,30.20
2018-08-10T21:07:08.624Z,30.00
2018-08-10T21:09:39.731Z,30.00
2018-08-10T21:12:10.471Z,30.10
2018-08-10T21:14:41.295Z,30.20
2018-08-10T21:17:12.337Z,30.20
2018-08-10T21:19:43.417Z,30.10
2018-08-10T21:22:14.165Z,30.20
2018-08-10T21:24:44.988Z,30.10
2018-08-10T21:27:15.984Z,30.20
2018-08-10T21:29:47.012Z,30.30
2018-08-10T21:32:17.869Z,30.40
2018-08-10T21:34:48.850Z,30.40
2018-08-10T21:37:19.588Z,30.40
2018-08-10T21:39:50.404Z,30.50
2018-08-10T21:42:21.578Z,30.40
2018-08-10T21:44:52.465Z,30.50
2018-08-10T21:47:26.085Z,30.30
2018-08-10T21:49:56.777Z,30.50
2018-08-10T21:52:27.346Z,30.70
2018-08-10T21:54:58.483Z,30.00
2018-08-10T21:57:29.890Z,30.70
2018-08-10T22:00:00.861Z,30.80
2018-08-10T22:02:31.598Z,31.00
2018-08-10T22:05:02.654Z,31.00
2018-08-10T22:07:33.407Z,31.10
2018-08-10T22:10:04.410Z,31.00
2018-08-10T22:12:39.515Z,31.10
2018-08-10T22:15:15.720Z,31.20
2018-08-10T22:17:51.737Z,31.20
2018-08-10T22:20:22.946Z,31.40
2018-08-10T22:22:53.643Z,31.30
2018-08-10T22:25:24.288Z,31.40
2018-08-10T22:27:55.418Z,31.60
2018-08-10T22:30:26.016Z,31.70
2018-08-10T22:32:56.973Z,31.80
2018-08-10T22:35:28.064Z,31.80
2018-08-10T22:37:59.160Z,31.90
2018-08-10T22:40:30.191Z,32.00
2018-08-10T22:43:00.954Z,32.10
2018-08-10T22:45:32.227Z,32.30
2018-08-10T22:48:03.087Z,32.40
2018-08-10T22:50:33.769Z,32.40
2018-08-10T22:53:04.484Z,32.40
2018-08-10T22:55:35.361Z,32.50
2018-08-10T22:58:06.141Z,32.60
2018-08-10T23:00:37.110Z,32.60
2018-08-10T23:03:14.325Z,32.60
2018-08-10T23:05:45.506Z,32.80
2018-08-10T23:08:16.666Z,32.70
2018-08-10T23:10:47.878Z,32.90
2018-08-10T23:13:18.592Z,33.00
2018-08-10T23:15:49.547Z,32.90
2018-08-10T23:18:20.340Z,33.00
2018-08-10T23:20:51.237Z,33.10
2018-08-10T23:23:21.865Z,33.00
2018-08-10T23:25:52.459Z,33.10
2018-08-10T23:28:23.624Z,33.10
2018-08-10T23:30:54.601Z,33.20
2018-08-10T23:33:25.307Z,33.10
2018-08-10T23:35:56.505Z,33.10
2018-08-10T23:38:27.231Z,33.20
2018-08-10T23:40:57.839Z,33.40
2018-08-10T23:43:28.787Z,33.40
2018-08-10T23:45:59.680Z,33.30
2018-08-10T23:48:30.447Z,33.40
2018-08-10T23:51:02.174Z,33.40
2018-08-10T23:53:33.213Z,33.50
2018-08-10T23:56:03.834Z,33.50
2018-08-10T23:58:34.869Z,33.50
